Time,TemperatureF,DewpointF,PressureIn,WindDirection,WindDirectionDegrees,WindSpeedMPH,WindSpeedGustMPH,Humidity,HourlyPrecipIn,Conditions,Clouds,dailyrainin,SolarRadiationWatts/m^2,SoftwareType,DateUTC
2013-02-22 00:00:00,15.6,13.4,29.76,West,281,10.0,10.0,91,0.00,,---,0.00,7.00,VWS V14.01,2013-02-22 06:00:00,
2013-02-22 00:04:00,15.6,13.4,29.76,North,0,7.0,10.0,91,0.00,,---,0.00,7.00,VWS V14.01,2013-02-22 06:04:00,
2013-02-22 00:05:00,15.6,13.4,29.76,North,0,7.0,10.0,91,0.00,,---,0.00,7.00,VWS V14.01,2013-02-22 06:05:00,
2013-02-22 00:09:00,15.4,13.2,29.76,North,0,4.0,8.0,91,0.00,,---,0.00,7.00,VWS V14.01,2013-02-22 06:09:00,
2013-02-22 00:10:00,15.4,13.2,29.76,North,0,8.0,9.0,91,0.00,,---,0.00,7.00,VWS V14.01,2013-02-22 06:10:00,
2013-02-22 00:14:00,15.4,13.2,29.76,NW,305,6.0,10.0,91,0.00,,---,0.00,7.00,VWS V14.01,2013-02-22 06:14:00,
2013-02-22 00:15:00,15.4,13.2,29.76,North,353,10.0,10.0,91,0.00,,---,0.00,7.00,VWS V14.01,2013-02-22 06:15:00,
2013-02-22 00:19:00,15.2,13.1,29.76,WNW,294,7.0,8.0,91,0.00,,---,0.00,5.00,VWS V14.01,2013-02-22 06:19:00,
2013-02-22 00:20:00,15.2,13.1,29.76,North,0,8.0,12.0,91,0.00,,---,0.00,5.00,VWS V14.01,2013-02-22 06:20:00,
2013-02-22 00:24:00,15.2,13.1,29.76,North,356,6.0,8.0,91,0.00,,---,0.00,5.00,VWS V14.01,2013-02-22 06:24:00,
2013-02-22 00:25:00,15.2,13.1,29.76,NNW,332,8.0,12.0,91,0.00,,---,0.00,5.00,VWS V14.01,2013-02-22 06:25:00,
2013-02-22 00:29:00,15.2,13.1,29.78,WNW,301,10.0,11.0,91,0.00,,---,0.00,7.00,VWS V14.01,2013-02-22 06:29:00,
2013-02-22 00:30:00,15.2,13.1,29.78,NW,322,8.0,11.0,91,0.00,,---,0.00,7.00,VWS V14.01,2013-02-22 06:30:00,
2013-02-22 00:34:00,15.6,13.4,29.78,North,0,8.0,8.0,91,0.00,,---,0.00,7.00,VWS V14.01,2013-02-22 06:34:00,
2013-02-22 00:35:00,15.6,13.4,29.78,WNW,282,7.0,11.0,91,0.00,,---,0.00,7.00,VWS V14.01,2013-02-22 06:35:00,
2013-02-22 00:39:00,15.7,13.5,29.78,North,0,8.0,10.0,91,0.00,,---,0.00,5.00,VWS V14.01,2013-02-22 06:39:00,
2013-02-22 00:40:00,15.7,13.8,29.78,North,359,6.0,12.0,92,0.00,,---,0.00,5.00,VWS V14.01,2013-02-22 06:40:00,
2013-02-22 00:45:00,15.9,13.7,29.78,NW,305,8.0,12.0,91,0.00,,---,0.00,7.00,VWS V14.01,2013-02-22 06:45:00,
2013-02-22 00:50:00,16.2,14.3,29.78,WNW,302,12.0,12.0,92,0.00,,---,0.00,7.00,VWS V14.01,2013-02-22 06:50:00,
2013-02-22 00:55:00,16.4,14.2,29.78,North,0,10.0,13.0,91,0.00,,---,0.00,5.00,VWS V14.01,2013-02-22 06:55:00,
2013-02-22 01:00:00,16.5,14.3,29.79,WNW,291,9.0,9.0,91,0.00,,---,0.00,0.00,VWS V14.01,2013-02-22 07:00:00,
2013-02-22 01:05:00,16.5,14.3,29.79,North,0,7.0,11.0,91,0.00,,---,0.00,5.00,VWS V14.01,2013-02-22 07:05:00,
2013-02-22 01:10:00,16.5,14.3,29.79,ESE,110,7.0,13.0,91,0.00,,---,0.00,0.00,VWS V14.01,2013-02-22 07:10:00,
2013-02-22 01:15:00,16.4,14.0,29.78,NNW,339,12.0,12.0,90,0.00,,---,0.00,0.00,VWS V14.01,2013-02-22 07:15:00,
2013-02-22 01:20:00,16.2,13.8,29.78,NW,325,11.0,13.0,90,0.00,,---,0.00,0.00,VWS V14.01,2013-02-22 07:20:00,
2013-02-22 01:25:00,15.9,13.5,29.78,North,0,11.0,12.0,90,0.00,,---,0.00,0.00,VWS V14.01,2013-02-22 07:25:00,
2013-02-22 01:30:00,15.4,12.7,29.79,WNW,298,10.0,13.0,89,0.00,,---,0.00,0.00,VWS V14.01,2013-02-22 07:30:00,
2013-02-22 01:35:00,15.1,12.4,29.79,West,277,10.0,14.0,89,0.00,,---,0.00,0.00,VWS V14.01,2013-02-22 07:35:00,
2013-02-22 01:40:00,14.8,12.1,29.79,WNW,295,9.0,12.0,89,0.00,,---,0.00,7.00,VWS V14.01,2013-02-22 07:40:00,
2013-02-22 01:45:00,14.4,11.8,29.79,North,0,7.0,11.0,89,0.00,,---,0.00,7.00,VWS V14.01,2013-02-22 07:45:00,
2013-02-22 01:50:00,14.3,11.7,29.79,North,353,9.0,12.0,89,0.00,,---,0.00,7.00,VWS V14.01,2013-02-22 07:50:00,
2013-02-22 01:51:00,14.3,11.7,29.79,NNW,330,6.0,12.0,89,0.00,,---,0.00,7.00,VWS V14.01,2013-02-22 07:51:00,
2013-02-22 01:55:00,14.1,11.5,29.79,North,0,10.0,12.0,89,0.00,,---,0.00,7.00,VWS V14.01,2013-02-22 07:55:00,
2013-02-22 01:56:00,14.0,11.4,29.79,North,349,8.0,10.0,89,0.00,,---,0.00,7.00,VWS V14.01,2013-02-22 07:56:00,
2013-02-22 02:00:00,13.8,11.2,29.79,NW,304,6.0,11.0,89,0.00,,---,0.00,7.00,VWS V14.01,2013-02-22 08:00:00,
2013-02-22 02:01:00,13.8,11.2,29.79,WNW,288,10.0,10.0,89,0.00,,---,0.00,5.00,VWS V14.01,2013-02-22 08:01:00,
2013-02-22 02:05:00,13.6,11.0,29.79,NW,315,10.0,11.0,89,0.00,,---,0.00,5.00,VWS V14.01,2013-02-22 08:05:00,
2013-02-22 02:06:00,13.5,10.9,29.79,WNW,288,7.0,10.0,89,0.00,,---,0.00,7.00,VWS V14.01,2013-02-22 08:06:00,
2013-02-22 02:10:00,13.3,10.4,29.79,WNW,296,11.0,11.0,88,0.00,,---,0.00,0.00,VWS V14.01,2013-02-22 08:10:00,
2013-02-22 02:11:00,13.3,10.4,29.79,NNW,333,11.0,11.0,88,0.00,,---,0.00,0.00,VWS V14.01,2013-02-22 08:11:00,
2013-02-22 02:15:00,13.1,10.2,29.78,NNW,332,7.0,11.0,88,0.00,,---,0.00,0.00,VWS V14.01,2013-02-22 08:15:00,
2013-02-22 02:16:00,12.9,10.0,29.78,WNW,284,7.0,10.0,88,0.00,,---,0.00,0.00,VWS V14.01,2013-02-22 08:16:00,
2013-02-22 02:20:00,12.9,10.0,29.78,West,268,6.0,11.0,88,0.00,,---,0.00,0.00,VWS V14.01,2013-02-22 08:20:00,
2013-02-22 02:21:00,12.9,10.0,29.78,West,265,6.0,10.0,88,0.00,,---,0.00,0.00,VWS V14.01,2013-02-22 08:21:00,
2013-02-22 02:25:00,12.9,10.0,29.78,North,0,6.0,10.0,88,0.00,,---,0.00,0.00,VWS V14.01,2013-02-22 08:25:00,
2013-02-22 02:26:00,12.9,10.0,29.78,North,0,7.0,10.0,88,0.00,,---,0.00,0.00,VWS V14.01,2013-02-22 08:26:00,
2013-02-22 02:30:00,12.8,9.9,29.79,North,350,8.0,10.0,88,0.00,,---,0.00,0.00,VWS V14.01,2013-02-22 08:30:00,
2013-02-22 02:31:00,12.8,9.9,29.79,WNW,294,10.0,10.0,88,0.00,,---,0.00,0.00,VWS V14.01,2013-02-22 08:31:00,
2013-02-22 02:35:00,12.8,9.9,29.79,North,0,8.0,10.0,88,0.00,,---,0.00,0.00,VWS V14.01,2013-02-22 08:35:00,
2013-02-22 02:36:00,12.6,9.7,29.79,North,352,7.0,11.0,88,0.00,,---,0.00,0.00,VWS V14.01,2013-02-22 08:36:00,
2013-02-22 02:40:00,12.6,9.7,29.79,North,0,8.0,11.0,88,0.00,,---,0.00,0.00,VWS V14.01,2013-02-22 08:40:00,
2013-02-22 02:41:00,12.8,10.2,29.79,North,354,6.0,11.0,89,0.00,,---,0.00,0.00,VWS V14.01,2013-02-22 08:41:00,
2013-02-22 02:45:00,12.6,10.0,29.81,WNW,302,8.0,11.0,89,0.00,,---,0.00,7.00,VWS V14.01,2013-02-22 08:45:00,
2013-02-22 02:46:00,12.6,10.0,29.81,WNW,291,7.0,10.0,89,0.00,,---,0.00,7.00,VWS V14.01,2013-02-22 08:46:00,
2013-02-22 02:50:00,12.6,10.0,29.81,West,278,9.0,11.0,89,0.00,,---,0.00,7.00,VWS V14.01,2013-02-22 08:50:00,
2013-02-22 02:51:00,12.6,9.7,29.81,West,278,8.0,10.0,88,0.00,,---,0.00,7.00,VWS V14.01,2013-02-22 08:51:00,
2013-02-22 02:55:00,12.6,9.7,29.81,West,280,9.0,10.0,88,0.00,,---,0.00,7.00,VWS V14.01,2013-02-22 08:55:00,
2013-02-22 02:56:00,12.6,9.7,29.81,NW,305,7.0,10.0,88,0.00,,---,0.00,7.00,VWS V14.01,2013-02-22 08:56:00,
2013-02-22 03:00:00,12.6,9.7,29.82,West,271,8.0,11.0,88,0.00,,---,0.00,7.00,VWS V14.01,2013-02-22 09:00:00,
2013-02-22 03:01:00,12.6,9.7,29.82,WNW,289,8.0,11.0,88,0.00,,---,0.00,7.00,VWS V14.01,2013-02-22 09:01:00,
2013-02-22 03:05:00,12.6,9.7,29.82,North,353,9.0,11.0,88,0.00,,---,0.00,7.00,VWS V14.01,2013-02-22 09:05:00,
2013-02-22 03:07:00,12.6,9.7,29.82,NW,308,8.0,11.0,88,0.00,,---,0.00,7.00,VWS V14.01,2013-02-22 09:07:00,
2013-02-22 03:10:00,12.6,9.7,29.82,WNW,282,10.0,11.0,88,0.00,,---,0.00,0.00,VWS V14.01,2013-02-22 09:10:00,
2013-02-22 03:12:00,12.4,9.5,29.82,WNW,287,5.0,10.0,88,0.00,,---,0.00,0.00,VWS V14.01,2013-02-22 09:12:00,
2013-02-22 03:15:00,12.4,9.5,29.83,WNW,294,6.0,10.0,88,0.00,,---,0.00,0.00,VWS V14.01,2013-02-22 09:15:00,
2013-02-22 03:17:00,12.4,9.5,29.83,West,264,6.0,11.0,88,0.00,,---,0.00,0.00,VWS V14.01,2013-02-22 09:17:00,
2013-02-22 03:20:00,12.4,9.5,29.83,West,264,8.0,11.0,88,0.00,,---,0.00,0.00,VWS V14.01,2013-02-22 09:20:00,
2013-02-22 03:22:00,12.4,9.5,29.83,WNW,282,6.0,10.0,88,0.00,,---,0.00,0.00,VWS V14.01,2013-02-22 09:22:00,
2013-02-22 03:25:00,12.4,9.5,29.83,WNW,296,6.0,10.0,88,0.00,,---,0.00,0.00,VWS V14.01,2013-02-22 09:25:00,
2013-02-22 03:27:00,12.3,9.4,29.83,WNW,295,7.0,9.0,88,0.00,,---,0.00,0.00,VWS V14.01,2013-02-22 09:27:00,
2013-02-22 03:30:00,12.4,9.5,29.83,West,277,7.0,9.0,88,0.00,,---,0.00,0.00,VWS V14.01,2013-02-22 09:30:00,
2013-02-22 03:32:00,12.4,9.5,29.83,WNW,285,8.0,10.0,88,0.00,,---,0.00,0.00,VWS V14.01,2013-02-22 09:32:00,
2013-02-22 03:35:00,12.4,9.5,29.83,WNW,289,7.0,10.0,88,0.00,,---,0.00,0.00,VWS V14.01,2013-02-22 09:35:00,
2013-02-22 03:37:00,12.4,9.5,29.83,West,278,7.0,10.0,88,0.00,,---,0.00,0.00,VWS V14.01,2013-02-22 09:37:00,
2013-02-22 03:40:00,12.4,9.3,29.83,WNW,282,4.0,10.0,87,0.00,,---,0.00,0.00,VWS V14.01,2013-02-22 09:40:00,
2013-02-22 03:42:00,12.3,9.4,29.83,WNW,289,10.0,10.0,88,0.00,,---,0.00,7.00,VWS V14.01,2013-02-22 09:42:00,
2013-02-22 03:45:00,12.3,9.4,29.83,WNW,291,9.0,10.0,88,0.00,,---,0.00,7.00,VWS V14.01,2013-02-22 09:45:00,
2013-02-22 03:47:00,12.3,9.4,29.83,NNW,342,8.0,10.0,88,0.00,,---,0.00,7.00,VWS V14.01,2013-02-22 09:47:00,
2013-02-22 03:50:00,12.3,9.4,29.83,WNW,292,7.0,10.0,88,0.00,,---,0.00,7.00,VWS V14.01,2013-02-22 09:50:00,
2013-02-22 03:52:00,12.1,9.2,29.83,North,349,8.0,10.0,88,0.00,,---,0.00,7.00,VWS V14.01,2013-02-22 09:52:00,
2013-02-22 03:55:00,12.1,9.2,29.83,WNW,294,9.0,11.0,88,0.00,,---,0.00,7.00,VWS V14.01,2013-02-22 09:55:00,
2013-02-22 03:57:00,12.1,9.2,29.83,NNW,329,10.0,11.0,88,0.00,,---,0.00,7.00,VWS V14.01,2013-02-22 09:57:00,
2013-02-22 04:00:00,12.3,9.4,29.82,North,0,11.0,12.0,88,0.00,,---,0.00,7.00,VWS V14.01,2013-02-22 10:00:00,
2013-02-22 04:03:00,12.4,9.5,29.82,North,359,11.0,12.0,88,0.00,,---,0.00,7.00,VWS V14.01,2013-02-22 10:03:00,
2013-02-22 04:05:00,12.4,9.5,29.82,NW,320,11.0,13.0,88,0.00,,---,0.00,7.00,VWS V14.01,2013-02-22 10:05:00,
2013-02-22 04:08:00,12.8,9.9,29.82,WNW,287,11.0,12.0,88,0.00,,---,0.00,7.00,VWS V14.01,2013-02-22 10:08:00,
2013-02-22 04:10:00,12.9,10.0,29.82,WNW,291,12.0,12.0,88,0.00,,---,0.00,7.00,VWS V14.01,2013-02-22 10:10:00,
2013-02-22 04:13:00,13.3,10.7,29.82,WNW,302,10.0,13.0,89,0.00,,---,0.00,0.00,VWS V14.01,2013-02-22 10:13:00,
2013-02-22 04:15:00,13.5,10.9,29.83,West,280,12.0,13.0,89,0.00,,---,0.00,0.00,VWS V14.01,2013-02-22 10:15:00,
2013-02-22 04:18:00,13.6,10.7,29.83,WNW,287,9.0,12.0,88,0.00,,---,0.00,0.00,VWS V14.01,2013-02-22 10:18:00,
2013-02-22 04:20:00,13.6,10.7,29.83,North,0,12.0,12.0,88,0.00,,---,0.00,0.00,VWS V14.01,2013-02-22 10:20:00,
2013-02-22 04:23:00,13.8,10.9,29.83,WNW,294,11.0,14.0,88,0.00,,---,0.00,0.00,VWS V14.01,2013-02-22 10:23:00,
2013-02-22 04:25:00,13.8,10.9,29.83,West,278,11.0,14.0,88,0.00,,---,0.00,0.00,VWS V14.01,2013-02-22 10:25:00,
2013-02-22 04:28:00,14.0,11.1,29.83,WNW,289,10.0,12.0,88,0.00,,---,0.00,0.00,VWS V14.01,2013-02-22 10:28:00,
2013-02-22 04:30:00,14.0,11.1,29.83,North,0,7.0,12.0,88,0.00,,---,0.00,0.00,VWS V14.01,2013-02-22 10:30:00,
2013-02-22 04:33:00,14.1,11.2,29.83,WNW,288,11.0,14.0,88,0.00,,---,0.00,0.00,VWS V14.01,2013-02-22 10:33:00,
2013-02-22 04:35:00,14.1,11.2,29.83,WNW,287,8.0,14.0,88,0.00,,---,0.00,0.00,VWS V14.01,2013-02-22 10:35:00,
2013-02-22 04:38:00,14.1,11.2,29.83,WNW,292,12.0,12.0,88,0.00,,---,0.00,0.00,VWS V14.01,2013-02-22 10:38:00,
2013-02-22 04:40:00,14.1,11.2,29.83,North,0,5.0,12.0,88,0.00,,---,0.00,0.00,VWS V14.01,2013-02-22 10:40:00,
2013-02-22 04:43:00,14.3,11.7,29.83,North,0,11.0,13.0,89,0.00,,---,0.00,7.00,VWS V14.01,2013-02-22 10:43:00,
2013-02-22 04:45:00,14.3,11.7,29.83,NNW,328,8.0,13.0,89,0.00,,---,0.00,7.00,VWS V14.01,2013-02-22 10:45:00,
2013-02-22 04:48:00,14.3,11.7,29.83,WNW,301,7.0,12.0,89,0.00,,---,0.00,7.00,VWS V14.01,2013-02-22 10:48:00,
2013-02-22 04:50:00,14.3,11.7,29.83,North,354,6.0,12.0,89,0.00,,---,0.00,7.00,VWS V14.01,2013-02-22 10:50:00,
2013-02-22 04:53:00,14.3,11.4,29.83,WNW,301,11.0,11.0,88,0.00,,---,0.00,9.00,VWS V14.01,2013-02-22 10:53:00,
2013-02-22 04:55:00,14.3,11.4,29.83,WNW,287,11.0,12.0,88,0.00,,---,0.00,9.00,VWS V14.01,2013-02-22 10:55:00,
2013-02-22 04:58:00,14.3,11.4,29.84,NW,304,9.0,11.0,88,0.00,,---,0.00,9.00,VWS V14.01,2013-02-22 10:58:00,
2013-02-22 05:00:00,14.3,11.4,29.84,NW,312,8.0,12.0,88,0.00,,---,0.00,9.00,VWS V14.01,2013-02-22 11:00:00,
2013-02-22 05:04:00,14.3,11.4,29.84,West,271,11.0,11.0,88,0.00,,---,0.00,9.00,VWS V14.01,2013-02-22 11:04:00,
2013-02-22 05:05:00,14.3,11.4,29.84,West,271,8.0,11.0,88,0.00,,---,0.00,9.00,VWS V14.01,2013-02-22 11:05:00,
2013-02-22 05:09:00,14.1,11.2,29.84,West,267,8.0,12.0,88,0.00,,---,0.00,0.00,VWS V14.01,2013-02-22 11:09:00,
2013-02-22 05:10:00,14.1,11.2,29.84,West,263,7.0,12.0,88,0.00,,---,0.00,0.00,VWS V14.01,2013-02-22 11:10:00,
2013-02-22 05:14:00,14.0,10.9,29.85,West,278,10.0,12.0,87,0.00,,---,0.00,0.00,VWS V14.01,2013-02-22 11:14:00,
2013-02-22 05:15:00,14.0,10.9,29.85,WNW,287,9.0,12.0,87,0.00,,---,0.00,0.00,VWS V14.01,2013-02-22 11:15:00,
2013-02-22 05:19:00,13.6,10.5,29.85,NNW,340,11.0,12.0,87,0.00,,---,0.00,0.00,VWS V14.01,2013-02-22 11:19:00,
2013-02-22 05:20:00,13.6,10.5,29.85,NNW,340,11.0,12.0,87,0.00,,---,0.00,0.00,VWS V14.01,2013-02-22 11:20:00,
2013-02-22 05:24:00,13.3,10.2,29.85,WNW,287,7.0,12.0,87,0.00,,---,0.00,0.00,VWS V14.01,2013-02-22 11:24:00,
2013-02-22 05:25:00,13.3,10.2,29.85,WNW,287,7.0,12.0,87,0.00,,---,0.00,0.00,VWS V14.01,2013-02-22 11:25:00,
2013-02-22 05:29:00,12.9,9.8,29.84,North,0,6.0,10.0,87,0.00,,---,0.00,0.00,VWS V14.01,2013-02-22 11:29:00,
2013-02-22 05:30:00,12.9,9.8,29.84,North,0,6.0,10.0,87,0.00,,---,0.00,0.00,VWS V14.01,2013-02-22 11:30:00,
2013-02-22 05:34:00,12.8,9.7,29.84,NW,316,10.0,10.0,87,0.00,,---,0.00,0.00,VWS V14.01,2013-02-22 11:34:00,
2013-02-22 05:35:00,12.8,9.7,29.84,North,0,6.0,10.0,87,0.00,,---,0.00,0.00,VWS V14.01,2013-02-22 11:35:00,
2013-02-22 05:39:00,12.4,9.3,29.84,West,270,9.0,9.0,87,0.00,,---,0.00,0.00,VWS V14.01,2013-02-22 11:39:00,
2013-02-22 05:40:00,12.6,9.5,29.84,WNW,287,8.0,10.0,87,0.00,,---,0.00,0.00,VWS V14.01,2013-02-22 11:40:00,
2013-02-22 05:44:00,12.3,9.2,29.85,WSW,258,10.0,10.0,87,0.00,,---,0.00,9.00,VWS V14.01,2013-02-22 11:44:00,
2013-02-22 05:45:00,12.3,9.2,29.85,West,275,9.0,10.0,87,0.00,,---,0.00,9.00,VWS V14.01,2013-02-22 11:45:00,
2013-02-22 05:49:00,12.1,9.0,29.85,North,0,8.0,8.0,87,0.00,,---,0.00,7.00,VWS V14.01,2013-02-22 11:49:00,
2013-02-22 05:50:00,12.3,9.2,29.85,West,270,7.0,11.0,87,0.00,,---,0.00,9.00,VWS V14.01,2013-02-22 11:50:00,
2013-02-22 05:54:00,12.3,9.2,29.85,North,0,10.0,10.0,87,0.00,,---,0.00,9.00,VWS V14.01,2013-02-22 11:54:00,
2013-02-22 05:55:00,12.3,9.2,29.85,NNW,344,6.0,11.0,87,0.00,,---,0.00,9.00,VWS V14.01,2013-02-22 11:55:00,
2013-02-22 05:59:00,12.3,9.2,29.86,North,0,6.0,10.0,87,0.00,,---,0.00,7.00,VWS V14.01,2013-02-22 11:59:00,
2013-02-22 06:00:00,12.3,9.2,29.86,WSW,250,7.0,11.0,87,0.00,,---,0.00,7.00,VWS V14.01,2013-02-22 12:00:00,
2013-02-22 06:04:00,12.3,9.2,29.86,North,0,7.0,8.0,87,0.00,,---,0.00,9.00,VWS V14.01,2013-02-22 12:04:00,
2013-02-22 06:05:00,12.3,9.2,29.86,NW,305,7.0,11.0,87,0.00,,---,0.00,9.00,VWS V14.01,2013-02-22 12:05:00,
2013-02-22 06:10:00,12.3,9.2,29.86,West,270,8.0,9.0,87,0.00,,---,0.00,0.00,VWS V14.01,2013-02-22 12:10:00,
2013-02-22 06:15:00,12.4,9.3,29.88,West,268,6.0,9.0,87,0.00,,---,0.00,0.00,VWS V14.01,2013-02-22 12:15:00,
2013-02-22 06:20:00,12.4,9.3,29.88,North,0,6.0,10.0,87,0.00,,---,0.00,0.00,VWS V14.01,2013-02-22 12:20:00,
2013-02-22 06:25:00,12.4,9.0,29.88,NW,306,12.0,13.0,86,0.00,,---,0.00,0.00,VWS V14.01,2013-02-22 12:25:00,
2013-02-22 06:30:00,12.3,8.9,29.88,NNW,347,10.0,12.0,86,0.00,,---,0.00,0.00,VWS V14.01,2013-02-22 12:30:00,
2013-02-22 06:35:00,12.1,8.7,29.88,WNW,289,7.0,11.0,86,0.00,,---,0.00,0.00,VWS V14.01,2013-02-22 12:35:00,
2013-02-22 06:40:00,12.1,9.0,29.88,WNW,292,9.0,12.0,87,0.00,,---,0.00,9.00,VWS V14.01,2013-02-22 12:40:00,
2013-02-22 06:45:00,11.9,8.8,29.88,NW,326,10.0,11.0,87,0.00,,---,0.00,9.00,VWS V14.01,2013-02-22 12:45:00,
2013-02-22 06:50:00,11.7,8.6,29.88,WNW,282,9.0,11.0,87,0.00,,---,0.00,9.00,VWS V14.01,2013-02-22 12:50:00,
2013-02-22 06:55:00,11.6,8.2,29.88,WNW,301,10.0,11.0,86,0.00,,---,0.00,9.00,VWS V14.01,2013-02-22 12:55:00,
2013-02-22 07:00:00,11.2,7.8,29.88,WNW,289,8.0,11.0,86,0.00,,---,0.00,12.00,VWS V14.01,2013-02-22 13:00:00,
2013-02-22 07:05:00,11.2,7.8,29.88,West,274,7.0,11.0,86,0.00,,---,0.00,12.00,VWS V14.01,2013-02-22 13:05:00,
2013-02-22 07:06:00,11.1,7.7,29.88,NW,312,7.0,10.0,86,0.00,,---,0.00,12.00,VWS V14.01,2013-02-22 13:06:00,
2013-02-22 07:10:00,11.1,7.7,29.88,West,275,6.0,10.0,86,0.00,,---,0.00,0.00,VWS V14.01,2013-02-22 13:10:00,
2013-02-22 07:11:00,11.1,7.7,29.88,WNW,287,3.0,8.0,86,0.00,,---,0.00,0.00,VWS V14.01,2013-02-22 13:11:00,
2013-02-22 07:15:00,10.9,7.5,29.89,North,0,5.0,8.0,86,0.00,,---,0.00,0.00,VWS V14.01,2013-02-22 13:15:00,
2013-02-22 07:16:00,10.9,7.5,29.89,WNW,287,10.0,10.0,86,0.00,,---,0.00,0.00,VWS V14.01,2013-02-22 13:16:00,
2013-02-22 07:20:00,10.9,7.5,29.89,NW,305,6.0,10.0,86,0.00,,---,0.00,0.00,VWS V14.01,2013-02-22 13:20:00,
2013-02-22 07:21:00,10.9,7.5,29.89,WNW,301,6.0,10.0,86,0.00,,---,0.00,0.00,VWS V14.01,2013-02-22 13:21:00,
2013-02-22 07:25:00,10.9,7.5,29.89,WNW,288,10.0,11.0,86,0.00,,---,0.00,7.00,VWS V14.01,2013-02-22 13:25:00,
2013-02-22 07:26:00,10.9,7.5,29.89,NNW,330,7.0,10.0,86,0.00,,---,0.00,14.00,VWS V14.01,2013-02-22 13:26:00,
2013-02-22 07:30:00,10.9,7.5,29.90,North,0,8.0,10.0,86,0.00,,---,0.00,14.00,VWS V14.01,2013-02-22 13:30:00,
2013-02-22 07:31:00,10.9,7.5,29.90,North,0,7.0,10.0,86,0.00,,---,0.00,19.00,VWS V14.01,2013-02-22 13:31:00,
2013-02-22 07:35:00,10.9,7.5,29.90,WNW,285,10.0,10.0,86,0.00,,---,0.00,26.00,VWS V14.01,2013-02-22 13:35:00,
2013-02-22 07:36:00,10.9,7.5,29.90,WNW,287,6.0,10.0,86,0.00,,---,0.00,26.00,VWS V14.01,2013-02-22 13:36:00,
2013-02-22 07:40:00,10.9,7.5,29.90,WNW,296,8.0,10.0,86,0.00,,---,0.00,35.00,VWS V14.01,2013-02-22 13:40:00,
2013-02-22 07:41:00,10.9,7.5,29.90,NW,316,7.0,8.0,86,0.00,,---,0.00,35.00,VWS V14.01,2013-02-22 13:41:00,
2013-02-22 07:45:00,10.9,7.5,29.90,North,0,7.0,9.0,86,0.00,,---,0.00,84.00,VWS V14.01,2013-02-22 13:45:00,
2013-02-22 07:46:00,10.9,7.5,29.90,WNW,292,13.0,13.0,86,0.00,,---,0.00,90.00,VWS V14.01,2013-02-22 13:46:00,
2013-02-22 07:50:00,11.1,7.7,29.90,NW,315,5.0,13.0,86,0.00,,---,0.00,99.00,VWS V14.01,2013-02-22 13:50:00,
2013-02-22 07:51:00,11.1,7.7,29.90,North,0,5.0,7.0,86,0.00,,---,0.00,104.00,VWS V14.01,2013-02-22 13:51:00,
2013-02-22 07:55:00,11.1,7.7,29.90,North,0,6.0,7.0,86,0.00,,---,0.00,111.00,VWS V14.01,2013-02-22 13:55:00,
2013-02-22 07:57:00,11.1,7.7,29.90,North,354,6.0,10.0,86,0.00,,---,0.00,120.00,VWS V14.01,2013-02-22 13:57:00,
2013-02-22 08:00:00,11.2,7.8,29.91,North,0,7.0,10.0,86,0.00,,---,0.00,125.00,VWS V14.01,2013-02-22 14:00:00,
2013-02-22 08:02:00,11.2,7.8,29.91,WNW,288,7.0,8.0,86,0.00,,---,0.00,137.00,VWS V14.01,2013-02-22 14:02:00,
2013-02-22 08:05:00,11.4,8.0,29.91,North,0,6.0,10.0,86,0.00,,---,0.00,143.00,VWS V14.01,2013-02-22 14:05:00,
2013-02-22 08:07:00,11.4,8.0,29.91,WNW,299,7.0,11.0,86,0.00,,---,0.00,118.00,VWS V14.01,2013-02-22 14:07:00,
2013-02-22 08:10:00,11.4,8.0,29.91,NNW,339,6.0,11.0,86,0.00,,---,0.00,123.00,VWS V14.01,2013-02-22 14:10:00,
2013-02-22 08:12:00,11.6,8.2,29.91,North,0,6.0,10.0,86,0.00,,---,0.00,132.00,VWS V14.01,2013-02-22 14:12:00,
2013-02-22 08:15:00,11.6,8.2,29.91,WNW,298,6.0,12.0,86,0.00,,---,0.00,135.00,VWS V14.01,2013-02-22 14:15:00,
2013-02-22 08:17:00,11.7,8.3,29.91,WNW,299,9.0,11.0,86,0.00,,---,0.00,144.00,VWS V14.01,2013-02-22 14:17:00,
2013-02-22 08:20:00,11.7,8.3,29.91,North,349,8.0,11.0,86,0.00,,---,0.00,148.00,VWS V14.01,2013-02-22 14:20:00,
2013-02-22 08:22:00,11.9,8.5,29.91,NNW,329,8.0,12.0,86,0.00,,---,0.00,158.00,VWS V14.01,2013-02-22 14:22:00,
2013-02-22 08:25:00,11.9,8.5,29.91,North,0,7.0,12.0,86,0.00,,---,0.00,162.00,VWS V14.01,2013-02-22 14:25:00,
2013-02-22 08:27:00,11.9,8.5,29.91,North,353,7.0,10.0,86,0.00,,---,0.00,169.00,VWS V14.01,2013-02-22 14:27:00,
2013-02-22 08:30:00,12.1,8.7,29.92,NNW,332,11.0,11.0,86,0.00,,---,0.00,176.00,VWS V14.01,2013-02-22 14:30:00,
2013-02-22 08:32:00,12.1,8.7,29.92,North,352,7.0,12.0,86,0.00,,---,0.00,185.00,VWS V14.01,2013-02-22 14:32:00,
2013-02-22 08:35:00,12.3,8.9,29.92,North,356,7.0,12.0,86,0.00,,---,0.00,190.00,VWS V14.01,2013-02-22 14:35:00,
2013-02-22 08:37:00,12.3,8.7,29.92,North,0,7.0,12.0,85,0.00,,---,0.00,199.00,VWS V14.01,2013-02-22 14:37:00,
2013-02-22 08:40:00,12.3,8.7,29.92,North,353,7.0,12.0,85,0.00,,---,0.00,204.00,VWS V14.01,2013-02-22 14:40:00,
2013-02-22 08:42:00,12.4,9.0,29.92,NW,315,7.0,12.0,86,0.00,,---,0.00,253.00,VWS V14.01,2013-02-22 14:42:00,
2013-02-22 08:45:00,12.4,9.0,29.93,NNW,344,7.0,12.0,86,0.00,,---,0.00,255.00,VWS V14.01,2013-02-22 14:45:00,
2013-02-22 08:48:00,12.4,9.0,29.93,North,0,10.0,14.0,86,0.00,,---,0.00,267.00,VWS V14.01,2013-02-22 14:48:00,
2013-02-22 08:50:00,12.6,9.2,29.93,North,0,10.0,14.0,86,0.00,,---,0.00,273.00,VWS V14.01,2013-02-22 14:50:00,
2013-02-22 08:53:00,12.8,9.4,29.93,NNW,343,7.0,13.0,86,0.00,,---,0.00,280.00,VWS V14.01,2013-02-22 14:53:00,
2013-02-22 08:55:00,12.8,9.4,29.93,NW,320,10.0,13.0,86,0.00,,---,0.00,285.00,VWS V14.01,2013-02-22 14:55:00,
2013-02-22 08:58:00,12.9,9.5,29.93,North,357,10.0,16.0,86,0.00,,---,0.00,299.00,VWS V14.01,2013-02-22 14:58:00,
2013-02-22 09:00:00,12.9,9.5,29.93,NW,308,7.0,16.0,86,0.00,,---,0.00,299.00,VWS V14.01,2013-02-22 15:00:00,
2013-02-22 09:03:00,13.1,9.7,29.93,North,0,14.0,14.0,86,0.00,,---,0.00,315.00,VWS V14.01,2013-02-22 15:03:00,
2013-02-22 09:05:00,13.1,9.7,29.93,North,0,8.0,14.0,86,0.00,,---,0.00,318.00,VWS V14.01,2013-02-22 15:05:00,
2013-02-22 09:08:00,13.3,9.6,29.93,North,352,8.0,14.0,85,0.00,,---,0.00,292.00,VWS V14.01,2013-02-22 15:08:00,
2013-02-22 09:10:00,13.3,9.6,29.93,North,0,11.0,14.0,85,0.00,,---,0.00,296.00,VWS V14.01,2013-02-22 15:10:00,
2013-02-22 09:13:00,13.5,9.8,29.93,North,353,7.0,13.0,85,0.00,,---,0.00,308.00,VWS V14.01,2013-02-22 15:13:00,
2013-02-22 09:15:00,13.5,9.8,29.93,North,0,10.0,13.0,85,0.00,,---,0.00,311.00,VWS V14.01,2013-02-22 15:15:00,
2013-02-22 09:18:00,13.8,10.1,29.93,NNW,347,8.0,12.0,85,0.00,,---,0.00,324.00,VWS V14.01,2013-02-22 15:18:00,
2013-02-22 09:20:00,13.8,10.1,29.93,North,354,12.0,12.0,85,0.00,,---,0.00,327.00,VWS V14.01,2013-02-22 15:20:00,
2013-02-22 09:23:00,14.0,10.3,29.93,North,0,11.0,13.0,85,0.00,,---,0.00,340.00,VWS V14.01,2013-02-22 15:23:00,
2013-02-22 09:25:00,14.0,10.3,29.93,West,275,10.0,13.0,85,0.00,,---,0.00,343.00,VWS V14.01,2013-02-22 15:25:00,
2013-02-22 09:28:00,14.1,10.4,29.94,NW,316,7.0,11.0,85,0.00,,---,0.00,359.00,VWS V14.01,2013-02-22 15:28:00,
2013-02-22 09:30:00,14.3,10.6,29.94,North,352,8.0,11.0,85,0.00,,---,0.00,359.00,VWS V14.01,2013-02-22 15:30:00,
2013-02-22 09:33:00,14.4,10.7,29.94,NW,311,8.0,13.0,85,0.00,,---,0.00,377.00,VWS V14.01,2013-02-22 15:33:00,
2013-02-22 09:35:00,14.4,10.7,29.94,NNW,337,11.0,13.0,85,0.00,,---,0.00,377.00,VWS V14.01,2013-02-22 15:35:00,
2013-02-22 09:38:00,14.6,10.9,29.94,NNW,333,10.0,13.0,85,0.00,,---,0.00,392.00,VWS V14.01,2013-02-22 15:38:00,
2013-02-22 09:40:00,14.6,10.9,29.94,NW,308,13.0,13.0,85,0.00,,---,0.00,392.00,VWS V14.01,2013-02-22 15:40:00,
2013-02-22 09:44:00,14.8,11.4,29.95,North,0,7.0,14.0,86,0.00,,---,0.00,445.00,VWS V14.01,2013-02-22 15:44:00,
2013-02-22 09:45:00,14.8,11.4,29.95,West,278,12.0,14.0,86,0.00,,---,0.00,445.00,VWS V14.01,2013-02-22 15:45:00,
2013-02-22 09:49:00,14.8,11.4,29.95,NNW,344,11.0,14.0,86,0.00,,---,0.00,461.00,VWS V14.01,2013-02-22 15:49:00,
2013-02-22 09:50:00,14.8,11.4,29.95,NNW,329,12.0,14.0,86,0.00,,---,0.00,461.00,VWS V14.01,2013-02-22 15:50:00,
2013-02-22 09:54:00,14.8,11.1,29.95,North,357,10.0,16.0,85,0.00,,---,0.00,475.00,VWS V14.01,2013-02-22 15:54:00,
2013-02-22 09:55:00,14.8,11.1,29.95,North,357,10.0,16.0,85,0.00,,---,0.00,475.00,VWS V14.01,2013-02-22 15:55:00,
2013-02-22 09:59:00,14.9,11.5,29.96,WNW,295,6.0,17.0,86,0.00,,---,0.00,457.00,VWS V14.01,2013-02-22 15:59:00,
2013-02-22 10:00:00,14.9,11.5,29.96,WNW,295,6.0,17.0,86,0.00,,---,0.00,457.00,VWS V14.01,2013-02-22 16:00:00,
2013-02-22 10:04:00,15.2,11.8,29.96,North,0,11.0,13.0,86,0.00,,---,0.00,501.00,VWS V14.01,2013-02-22 16:04:00,
2013-02-22 10:05:00,15.2,11.8,29.96,North,0,11.0,13.0,86,0.00,,---,0.00,501.00,VWS V14.01,2013-02-22 16:05:00,
2013-02-22 10:09:00,15.4,11.7,29.96,WNW,295,11.0,12.0,85,0.00,,---,0.00,482.00,VWS V14.01,2013-02-22 16:09:00,
2013-02-22 10:10:00,15.4,11.7,29.96,WNW,295,11.0,12.0,85,0.00,,---,0.00,482.00,VWS V14.01,2013-02-22 16:10:00,
2013-02-22 10:14:00,15.7,12.0,29.96,NW,305,8.0,13.0,85,0.00,,---,0.00,496.00,VWS V14.01,2013-02-22 16:14:00,
2013-02-22 10:15:00,15.7,12.0,29.96,NW,305,8.0,13.0,85,0.00,,---,0.00,496.00,VWS V14.01,2013-02-22 16:15:00,
2013-02-22 10:19:00,16.1,12.4,29.96,NNW,342,10.0,13.0,85,0.00,,---,0.00,503.00,VWS V14.01,2013-02-22 16:19:00,
2013-02-22 10:20:00,16.1,12.4,29.96,NNW,342,10.0,13.0,85,0.00,,---,0.00,503.00,VWS V14.01,2013-02-22 16:20:00,
2013-02-22 10:24:00,16.2,12.5,29.96,NW,323,6.0,12.0,85,0.00,,---,0.00,524.00,VWS V14.01,2013-02-22 16:24:00,
2013-02-22 10:25:00,16.2,12.5,29.96,NW,323,6.0,12.0,85,0.00,,---,0.00,524.00,VWS V14.01,2013-02-22 16:25:00,
2013-02-22 10:29:00,16.5,13.1,29.97,North,0,7.0,12.0,86,0.00,,---,0.00,537.00,VWS V14.01,2013-02-22 16:29:00,
2013-02-22 10:30:00,16.5,13.1,29.97,North,0,7.0,12.0,86,0.00,,---,0.00,537.00,VWS V14.01,2013-02-22 16:30:00,
2013-02-22 10:34:00,16.9,13.2,29.97,NNW,329,10.0,11.0,85,0.00,,---,0.00,537.00,VWS V14.01,2013-02-22 16:34:00,
2013-02-22 10:35:00,16.9,13.2,29.97,WNW,288,11.0,11.0,85,0.00,,---,0.00,537.00,VWS V14.01,2013-02-22 16:35:00,
2013-02-22 10:40:00,19.1,15.1,29.98,NW,308,11.0,16.0,84,0.00,,---,0.00,651.00,VWS V14.01,2013-02-22 16:40:00,
2013-02-22 10:42:00,17.0,13.3,29.97,West,275,8.0,12.0,85,0.00,,---,0.00,589.00,VWS V14.01,2013-02-22 16:42:00,
2013-02-22 10:45:00,17.0,13.3,29.97,NW,318,9.0,14.0,85,0.00,,---,0.00,595.00,VWS V14.01,2013-02-22 16:45:00,
2013-02-22 10:47:00,17.0,13.3,29.97,North,0,12.0,15.0,85,0.00,,---,0.00,598.00,VWS V14.01,2013-02-22 16:47:00,
2013-02-22 10:50:00,17.0,13.3,29.97,NW,312,10.0,15.0,85,0.00,,---,0.00,604.00,VWS V14.01,2013-02-22 16:50:00,
2013-02-22 10:55:00,19.2,15.4,29.98,WNW,301,12.0,12.0,85,0.00,,---,0.00,653.00,VWS V14.01,2013-02-22 16:55:00,
2013-02-22 10:56:00,17.3,13.8,29.97,NNW,330,11.0,12.0,86,0.00,,---,0.00,618.00,VWS V14.01,2013-02-22 16:56:00,
2013-02-22 11:00:00,17.7,14.2,29.97,NW,315,12.0,14.0,86,0.00,,---,0.00,616.00,VWS V14.01,2013-02-22 17:00:00,
2013-02-22 11:01:00,17.7,14.2,29.97,North,0,8.0,12.0,86,0.00,,---,0.00,619.00,VWS V14.01,2013-02-22 17:01:00,
2013-02-22 11:05:00,17.8,14.3,29.97,NW,322,8.0,14.0,86,0.00,,---,0.00,623.00,VWS V14.01,2013-02-22 17:05:00,
2013-02-22 11:06:00,18.0,14.5,29.97,West,277,9.0,11.0,86,0.00,,---,0.00,607.00,VWS V14.01,2013-02-22 17:06:00,
2013-02-22 11:10:00,18.3,14.6,29.97,West,271,8.0,11.0,85,0.00,,---,0.00,611.00,VWS V14.01,2013-02-22 17:10:00,
2013-02-22 11:11:00,18.4,14.9,29.97,NNW,340,12.0,12.0,86,0.00,,---,0.00,616.00,VWS V14.01,2013-02-22 17:11:00,
2013-02-22 11:15:00,20.3,16.5,29.98,North,352,8.0,12.0,85,0.00,,---,0.00,679.00,VWS V14.01,2013-02-22 17:15:00,
2013-02-22 11:16:00,18.6,14.9,29.98,WNW,302,9.0,16.0,85,0.00,,---,0.00,621.00,VWS V14.01,2013-02-22 17:16:00,
2013-02-22 11:20:00,18.6,14.9,29.98,WNW,282,8.0,16.0,85,0.00,,---,0.00,625.00,VWS V14.01,2013-02-22 17:20:00,
2013-02-22 11:21:00,18.6,14.9,29.98,NW,304,13.0,14.0,85,0.00,,---,0.00,628.00,VWS V14.01,2013-02-22 17:21:00,
2013-02-22 11:25:00,18.6,14.9,29.98,NNW,339,11.0,14.0,85,0.00,,---,0.00,632.00,VWS V14.01,2013-02-22 17:25:00,
2013-02-22 11:26:00,18.6,14.9,29.98,NW,309,9.0,13.0,85,0.00,,---,0.00,635.00,VWS V14.01,2013-02-22 17:26:00,
2013-02-22 11:30:00,18.8,15.1,29.98,NNW,332,9.0,13.0,85,0.00,,---,0.00,639.00,VWS V14.01,2013-02-22 17:30:00,
2013-02-22 11:31:00,18.9,15.1,29.98,NW,309,8.0,13.0,85,0.00,,---,0.00,642.00,VWS V14.01,2013-02-22 17:31:00,
2013-02-22 11:35:00,19.1,15.3,29.98,WNW,298,13.0,14.0,85,0.00,,---,0.00,642.00,VWS V14.01,2013-02-22 17:35:00,
2013-02-22 11:36:00,19.1,15.3,29.98,NW,322,12.0,16.0,85,0.00,,---,0.00,139.00,VWS V14.01,2013-02-22 17:36:00,
2013-02-22 11:40:00,19.1,15.1,29.98,NW,308,11.0,16.0,84,0.00,,---,0.00,651.00,VWS V14.01,2013-02-22 17:40:00,
2013-02-22 11:41:00,19.1,15.3,29.98,WNW,301,12.0,14.0,85,0.00,,---,0.00,662.00,VWS V14.01,2013-02-22 17:41:00,
2013-02-22 11:45:00,19.1,15.3,29.98,NNW,328,12.0,14.0,85,0.00,,---,0.00,672.00,VWS V14.01,2013-02-22 17:45:00,
2013-02-22 11:46:00,19.2,15.7,29.98,WNW,289,12.0,13.0,86,0.00,,---,0.00,674.00,VWS V14.01,2013-02-22 17:46:00,
2013-02-22 11:50:00,19.2,15.4,29.98,WNW,292,11.0,13.0,85,0.00,,---,0.00,676.00,VWS V14.01,2013-02-22 17:50:00,
2013-02-22 11:51:00,19.2,15.4,29.98,WNW,282,7.0,12.0,85,0.00,,---,0.00,653.00,VWS V14.01,2013-02-22 17:51:00,
2013-02-22 11:55:00,19.2,15.4,29.98,WNW,301,12.0,12.0,85,0.00,,---,0.00,653.00,VWS V14.01,2013-02-22 17:55:00,
2013-02-22 11:57:00,19.2,15.4,29.98,West,268,14.0,14.0,85,0.00,,---,0.00,102.00,VWS V14.01,2013-02-22 17:57:00,
2013-02-22 12:00:00,19.2,15.4,29.98,WNW,298,5.0,14.0,85,0.00,,---,0.00,102.00,VWS V14.01,2013-02-22 18:00:00,
2013-02-22 12:02:00,19.4,15.9,29.98,NNW,336,10.0,11.0,86,0.00,,---,0.00,100.00,VWS V14.01,2013-02-22 18:02:00,
2013-02-22 12:05:00,19.5,16.0,29.98,West,280,7.0,11.0,86,0.00,,---,0.00,102.00,VWS V14.01,2013-02-22 18:05:00,
2013-02-22 12:07:00,19.7,15.9,29.98,NNW,340,10.0,11.0,85,0.00,,---,0.00,77.00,VWS V14.01,2013-02-22 18:07:00,
2013-02-22 12:10:00,20.0,16.2,29.98,North,349,9.0,11.0,85,0.00,,---,0.00,106.00,VWS V14.01,2013-02-22 18:10:00,
2013-02-22 12:12:00,20.2,16.4,29.98,North,0,8.0,12.0,85,0.00,,---,0.00,106.00,VWS V14.01,2013-02-22 18:12:00,
2013-02-22 12:15:00,20.3,16.5,29.98,North,352,8.0,12.0,85,0.00,,---,0.00,679.00,VWS V14.01,2013-02-22 18:15:00,
2013-02-22 12:17:00,20.5,16.7,29.98,NW,325,10.0,11.0,85,0.01,,---,0.01,655.00,VWS V14.01,2013-02-22 18:17:00,
2013-02-22 12:20:00,20.5,16.7,29.98,North,0,8.0,11.0,85,0.01,,---,0.01,655.00,VWS V14.01,2013-02-22 18:20:00,
2013-02-22 12:22:00,20.6,16.8,29.98,NW,322,7.0,11.0,85,0.01,,---,0.01,125.00,VWS V14.01,2013-02-22 18:22:00,
2013-02-22 12:25:00,20.8,17.0,29.98,NNW,346,10.0,11.0,85,0.01,,---,0.01,125.00,VWS V14.01,2013-02-22 18:25:00,
2013-02-22 12:27:00,20.8,17.0,29.98,NNW,328,11.0,12.0,85,0.01,,---,0.01,684.00,VWS V14.01,2013-02-22 18:27:00,
2013-02-22 12:30:00,20.8,16.7,29.97,NNW,342,5.0,12.0,84,0.01,,---,0.01,676.00,VWS V14.01,2013-02-22 18:30:00,
2013-02-22 12:32:00,20.8,16.7,29.97,West,265,5.0,10.0,84,0.01,,---,0.01,642.00,VWS V14.01,2013-02-22 18:32:00,
2013-02-22 12:35:00,20.8,17.0,29.97,West,272,8.0,10.0,85,0.01,,---,0.01,642.00,VWS V14.01,2013-02-22 18:35:00,
2013-02-22 12:37:00,20.6,16.5,29.97,WNW,292,7.0,11.0,84,0.01,,---,0.01,76.00,VWS V14.01,2013-02-22 18:37:00,
2013-02-22 12:40:00,20.6,16.5,29.97,NW,326,7.0,11.0,84,0.01,,---,0.01,76.00,VWS V14.01,2013-02-22 18:40:00,
2013-02-22 12:42:00,20.8,17.3,29.97,North,357,8.0,11.0,86,0.01,,---,0.01,100.00,VWS V14.01,2013-02-22 18:42:00,
2013-02-22 12:45:00,21.0,17.5,29.98,NW,319,8.0,11.0,86,0.01,,---,0.01,99.00,VWS V14.01,2013-02-22 18:45:00,
2013-02-22 12:47:00,21.1,17.6,29.98,NNW,347,7.0,10.0,86,0.01,,---,0.01,100.00,VWS V14.01,2013-02-22 18:47:00,
2013-02-22 12:50:00,21.3,17.8,29.98,North,0,8.0,10.0,86,0.01,,---,0.01,100.00,VWS V14.01,2013-02-22 18:50:00,
2013-02-22 12:52:00,21.3,17.5,29.98,West,268,11.0,11.0,85,0.02,,---,0.02,146.00,VWS V14.01,2013-02-22 18:52:00,
2013-02-22 12:55:00,21.4,17.6,29.98,WNW,291,7.0,11.0,85,0.02,,---,0.02,146.00,VWS V14.01,2013-02-22 18:55:00,
2013-02-22 12:57:00,21.1,17.3,29.98,WNW,291,8.0,12.0,85,0.02,,---,0.02,691.00,VWS V14.01,2013-02-22 18:57:00,
2013-02-22 13:00:00,21.1,17.3,29.98,West,265,9.0,12.0,85,0.02,,---,0.02,691.00,VWS V14.01,2013-02-22 19:00:00,
2013-02-22 13:02:00,21.0,16.9,29.98,West,274,7.0,11.0,84,0.02,,---,0.02,171.00,VWS V14.01,2013-02-22 19:02:00,
2013-02-22 13:05:00,21.0,16.9,29.98,West,270,7.0,11.0,84,0.02,,---,0.02,171.00,VWS V14.01,2013-02-22 19:05:00,
2013-02-22 13:07:00,20.8,16.7,29.98,NW,308,11.0,11.0,84,0.02,,---,0.02,681.00,VWS V14.01,2013-02-22 19:07:00,
2013-02-22 13:10:00,20.8,16.7,29.98,NNW,330,6.0,11.0,84,0.02,,---,0.02,683.00,VWS V14.01,2013-02-22 19:10:00,
2013-02-22 13:13:00,21.0,16.9,29.98,West,277,7.0,11.0,84,0.02,,---,0.02,681.00,VWS V14.01,2013-02-22 19:13:00,
2013-02-22 13:15:00,21.0,16.9,29.98,NNW,337,11.0,12.0,84,0.02,,---,0.02,681.00,VWS V14.01,2013-02-22 19:15:00,
2013-02-22 13:18:00,20.8,16.5,29.98,NW,313,8.0,12.0,83,0.02,,---,0.02,679.00,VWS V14.01,2013-02-22 19:18:00,
2013-02-22 13:20:00,20.8,16.5,29.98,North,357,8.0,12.0,83,0.02,,---,0.02,676.00,VWS V14.01,2013-02-22 19:20:00,
2013-02-22 13:23:00,21.0,16.7,29.98,NNW,344,10.0,13.0,83,0.01,,---,0.02,648.00,VWS V14.01,2013-02-22 19:23:00,
2013-02-22 13:25:00,21.0,16.9,29.98,NW,315,7.0,13.0,84,0.01,,---,0.02,155.00,VWS V14.01,2013-02-22 19:25:00,
2013-02-22 13:28:00,21.3,17.2,29.98,West,277,8.0,12.0,84,0.01,,---,0.02,639.00,VWS V14.01,2013-02-22 19:28:00,
2013-02-22 13:30:00,21.4,17.3,29.98,West,275,11.0,12.0,84,0.01,,---,0.02,639.00,VWS V14.01,2013-02-22 19:30:00,
2013-02-22 13:33:00,21.4,17.0,29.98,WNW,295,11.0,12.0,83,0.01,,---,0.02,77.00,VWS V14.01,2013-02-22 19:33:00,
2013-02-22 13:35:00,21.4,17.0,29.98,NNW,339,8.0,12.0,83,0.01,,---,0.02,77.00,VWS V14.01,2013-02-22 19:35:00,
2013-02-22 13:38:00,21.4,17.3,29.98,WNW,287,11.0,11.0,84,0.01,,---,0.02,79.00,VWS V14.01,2013-02-22 19:38:00,
2013-02-22 13:40:00,21.4,17.3,29.98,WNW,284,11.0,13.0,84,0.01,,---,0.02,79.00,VWS V14.01,2013-02-22 19:40:00,
2013-02-22 13:43:00,21.6,17.5,29.97,NW,311,8.0,12.0,84,0.02,,---,0.03,135.00,VWS V14.01,2013-02-22 19:43:00,
2013-02-22 13:45:00,21.6,17.5,29.97,WNW,294,11.0,12.0,84,0.02,,---,0.03,135.00,VWS V14.01,2013-02-22 19:45:00,
2013-02-22 13:48:00,21.6,17.2,29.97,NNW,333,11.0,13.0,83,0.02,,---,0.03,663.00,VWS V14.01,2013-02-22 19:48:00,
2013-02-22 13:50:00,21.6,17.2,29.97,West,271,6.0,13.0,83,0.02,,---,0.03,663.00,VWS V14.01,2013-02-22 19:50:00,
2013-02-22 13:53:00,21.6,17.5,29.97,WNW,289,13.0,13.0,84,0.02,,---,0.03,660.00,VWS V14.01,2013-02-22 19:53:00,
2013-02-22 13:55:00,21.8,17.4,29.97,NNW,337,11.0,13.0,83,0.02,,---,0.03,658.00,VWS V14.01,2013-02-22 19:55:00,
2013-02-22 13:58:00,21.8,17.4,29.97,WNW,295,12.0,14.0,83,0.01,,---,0.03,655.00,VWS V14.01,2013-02-22 19:58:00,
2013-02-22 14:00:00,21.8,17.4,29.97,WNW,292,13.0,14.0,83,0.01,,---,0.03,653.00,VWS V14.01,2013-02-22 20:00:00,
2013-02-22 14:03:00,21.9,17.5,29.97,West,280,13.0,14.0,83,0.01,,---,0.03,648.00,VWS V14.01,2013-02-22 20:03:00,
2013-02-22 14:05:00,21.8,17.4,29.97,West,281,8.0,14.0,83,0.01,,---,0.03,648.00,VWS V14.01,2013-02-22 20:05:00,
2013-02-22 14:08:00,21.6,17.0,29.97,West,271,12.0,14.0,82,0.01,,---,0.03,626.00,VWS V14.01,2013-02-22 20:08:00,
2013-02-22 14:10:00,21.6,17.0,29.97,West,270,8.0,14.0,82,0.01,,---,0.03,628.00,VWS V14.01,2013-02-22 20:10:00,
2013-02-22 14:13:00,21.6,17.0,29.97,West,278,13.0,18.0,82,0.01,,---,0.03,623.00,VWS V14.01,2013-02-22 20:13:00,
2013-02-22 14:15:00,21.6,17.0,29.97,NNW,330,10.0,18.0,82,0.01,,---,0.03,623.00,VWS V14.01,2013-02-22 20:15:00,
2013-02-22 14:18:00,21.4,16.8,29.97,WNW,284,7.0,14.0,82,0.01,,---,0.03,612.00,VWS V14.01,2013-02-22 20:18:00,
2013-02-22 14:20:00,21.4,16.8,29.97,WNW,291,11.0,14.0,82,0.01,,---,0.03,612.00,VWS V14.01,2013-02-22 20:20:00,
2013-02-22 14:24:00,21.6,17.0,29.97,West,274,6.0,13.0,82,0.01,,---,0.03,607.00,VWS V14.01,2013-02-22 20:24:00,
2013-02-22 14:25:00,21.6,17.0,29.97,WNW,287,5.0,13.0,82,0.01,,---,0.03,607.00,VWS V14.01,2013-02-22 20:25:00,
2013-02-22 14:29:00,21.9,17.3,29.97,West,280,10.0,14.0,82,0.01,,---,0.03,605.00,VWS V14.01,2013-02-22 20:29:00,
2013-02-22 14:30:00,21.9,17.3,29.97,West,272,6.0,14.0,82,0.01,,---,0.03,605.00,VWS V14.01,2013-02-22 20:30:00,
2013-02-22 14:34:00,22.2,17.5,29.97,North,0,12.0,13.0,82,0.01,,---,0.03,602.00,VWS V14.01,2013-02-22 20:34:00,
2013-02-22 14:35:00,22.2,17.5,29.97,North,0,10.0,13.0,82,0.01,,---,0.03,602.00,VWS V14.01,2013-02-22 20:35:00,
2013-02-22 14:39:00,22.4,17.8,29.97,West,265,8.0,11.0,82,0.01,,---,0.03,537.00,VWS V14.01,2013-02-22 20:39:00,
2013-02-22 14:40:00,22.4,17.8,29.97,West,271,6.0,11.0,82,0.01,,---,0.03,537.00,VWS V14.01,2013-02-22 20:40:00,
2013-02-22 14:44:00,22.4,18.0,29.96,NNW,340,9.0,12.0,83,0.01,,---,0.03,528.00,VWS V14.01,2013-02-22 20:44:00,
2013-02-22 14:45:00,22.4,18.0,29.96,WNW,295,10.0,12.0,83,0.01,,---,0.03,528.00,VWS V14.01,2013-02-22 20:45:00,
2013-02-22 14:49:00,22.7,18.3,29.96,WNW,292,7.0,12.0,83,0.00,,---,0.03,595.00,VWS V14.01,2013-02-22 20:49:00,
2013-02-22 14:50:00,22.7,18.3,29.96,WNW,292,7.0,12.0,83,0.00,,---,0.03,595.00,VWS V14.01,2013-02-22 20:50:00,
2013-02-22 14:54:00,22.7,18.3,29.96,West,280,7.0,11.0,83,0.00,,---,0.03,635.00,VWS V14.01,2013-02-22 20:54:00,
2013-02-22 14:55:00,22.7,18.3,29.96,West,280,7.0,11.0,83,0.00,,---,0.03,635.00,VWS V14.01,2013-02-22 20:55:00,
2013-02-22 14:59:00,22.9,18.5,29.95,NW,325,11.0,12.0,83,0.01,,---,0.04,616.00,VWS V14.01,2013-02-22 20:59:00,
2013-02-22 15:00:00,22.9,18.5,29.95,NW,325,11.0,12.0,83,0.01,,---,0.04,616.00,VWS V14.01,2013-02-22 21:00:00,
2013-02-22 15:04:00,23.0,18.3,29.95,WNW,301,10.0,11.0,82,0.01,,---,0.04,421.00,VWS V14.01,2013-02-22 21:04:00,
2013-02-22 15:05:00,23.0,18.3,29.95,WNW,298,11.0,12.0,82,0.01,,---,0.04,421.00,VWS V14.01,2013-02-22 21:05:00,
2013-02-22 15:09:00,22.5,17.6,29.95,WNW,299,7.0,8.0,81,0.01,,---,0.04,313.00,VWS V14.01,2013-02-22 21:09:00,
2013-02-22 15:10:00,22.5,17.6,29.95,WNW,291,7.0,12.0,81,0.01,,---,0.04,347.00,VWS V14.01,2013-02-22 21:10:00,
2013-02-22 15:14:00,22.2,17.5,29.96,North,0,7.0,8.0,82,0.01,,---,0.04,403.00,VWS V14.01,2013-02-22 21:14:00,
2013-02-22 15:15:00,22.2,17.5,29.96,NW,319,8.0,11.0,82,0.01,,---,0.04,403.00,VWS V14.01,2013-02-22 21:15:00,
2013-02-22 15:19:00,22.4,17.8,29.96,WNW,289,7.0,7.0,82,0.01,,---,0.04,459.00,VWS V14.01,2013-02-22 21:19:00,
2013-02-22 15:20:00,22.4,17.8,29.96,WNW,292,5.0,11.0,82,0.01,,---,0.04,452.00,VWS V14.01,2013-02-22 21:20:00,
2013-02-22 15:25:00,22.5,17.9,29.96,WNW,287,8.0,8.0,82,0.01,,---,0.04,370.00,VWS V14.01,2013-02-22 21:25:00,
2013-02-22 15:30:00,22.7,18.0,29.95,North,350,5.0,8.0,82,0.01,,---,0.04,494.00,VWS V14.01,2013-02-22 21:30:00,
2013-02-22 15:35:00,23.0,18.3,29.95,NNW,330,8.0,11.0,82,0.01,,---,0.04,530.00,VWS V14.01,2013-02-22 21:35:00,
2013-02-22 15:40:00,22.9,18.0,29.95,WNW,301,9.0,9.0,81,0.01,,---,0.04,241.00,VWS V14.01,2013-02-22 21:40:00,
2013-02-22 15:45:00,22.9,18.2,29.96,North,0,5.0,8.0,82,0.01,,---,0.04,482.00,VWS V14.01,2013-02-22 21:45:00,
2013-02-22 15:50:00,22.7,18.0,29.96,WNW,301,5.0,8.0,82,0.01,,---,0.04,264.00,VWS V14.01,2013-02-22 21:50:00,
2013-02-22 15:55:00,22.7,18.0,29.96,NNW,335,10.0,11.0,82,0.01,,---,0.04,371.00,VWS V14.01,2013-02-22 21:55:00,
2013-02-22 16:00:00,22.7,18.0,29.95,North,0,7.0,12.0,82,0.00,,---,0.04,415.00,VWS V14.01,2013-02-22 22:00:00,
2013-02-22 16:05:00,22.9,18.0,29.95,NW,318,10.0,12.0,81,0.00,,---,0.04,310.00,VWS V14.01,2013-02-22 22:05:00,
2013-02-22 16:10:00,22.9,18.0,29.95,NW,316,12.0,12.0,81,0.00,,---,0.04,334.00,VWS V14.01,2013-02-22 22:10:00,
2013-02-22 16:15:00,22.9,18.0,29.95,North,353,9.0,10.0,81,0.00,,---,0.04,345.00,VWS V14.01,2013-02-22 22:15:00,
2013-02-22 16:20:00,22.9,17.7,29.95,WNW,292,8.0,11.0,80,0.00,,---,0.04,318.00,VWS V14.01,2013-02-22 22:20:00,
2013-02-22 16:25:00,23.0,17.8,29.95,WNW,301,6.0,11.0,80,0.00,,---,0.04,303.00,VWS V14.01,2013-02-22 22:25:00,
2013-02-22 16:26:00,23.0,17.8,29.95,NW,306,12.0,12.0,80,0.00,,---,0.04,301.00,VWS V14.01,2013-02-22 22:26:00,
2013-02-22 16:30:00,22.9,17.7,29.94,WNW,288,8.0,12.0,80,0.00,,---,0.04,294.00,VWS V14.01,2013-02-22 22:30:00,
2013-02-22 16:31:00,22.9,17.7,29.94,NNW,333,10.0,11.0,80,0.00,,---,0.04,285.00,VWS V14.01,2013-02-22 22:31:00,
2013-02-22 16:35:00,22.7,17.5,29.94,WNW,284,7.0,11.0,80,0.00,,---,0.04,271.00,VWS V14.01,2013-02-22 22:35:00,
2013-02-22 16:36:00,22.7,17.5,29.94,NW,322,6.0,8.0,80,0.00,,---,0.04,262.00,VWS V14.01,2013-02-22 22:36:00,
2013-02-22 16:40:00,22.9,17.7,29.94,WNW,292,5.0,9.0,80,0.00,,---,0.04,257.00,VWS V14.01,2013-02-22 22:40:00,
2013-02-22 16:41:00,22.9,18.0,29.94,WNW,284,6.0,8.0,81,0.00,,---,0.04,262.00,VWS V14.01,2013-02-22 22:41:00,
2013-02-22 16:45:00,23.0,18.0,29.94,WNW,288,6.0,8.0,81,0.00,,---,0.04,257.00,VWS V14.01,2013-02-22 22:45:00,
2013-02-22 16:46:00,23.0,18.0,29.94,West,278,4.0,7.0,81,0.00,,---,0.04,250.00,VWS V14.01,2013-02-22 22:46:00,
2013-02-22 16:50:00,23.2,18.0,29.94,WNW,287,4.0,8.0,80,0.00,,---,0.04,241.00,VWS V14.01,2013-02-22 22:50:00,
2013-02-22 16:51:00,23.2,18.0,29.94,WNW,284,4.0,6.0,80,0.00,,---,0.04,229.00,VWS V14.01,2013-02-22 22:51:00,
2013-02-22 16:55:00,23.2,18.0,29.94,WNW,289,7.0,9.0,80,0.00,,---,0.04,209.00,VWS V14.01,2013-02-22 22:55:00,
2013-02-22 16:56:00,23.0,17.5,29.94,West,281,8.0,8.0,79,0.00,,---,0.04,201.00,VWS V14.01,2013-02-22 22:56:00,
2013-02-22 17:00:00,23.0,17.5,29.94,WNW,291,5.0,8.0,79,0.00,,---,0.04,195.00,VWS V14.01,2013-02-22 23:00:00,
2013-02-22 17:01:00,23.0,17.5,29.94,WNW,291,6.0,8.0,79,0.00,,---,0.04,183.00,VWS V14.01,2013-02-22 23:01:00,
2013-02-22 17:05:00,23.0,17.8,29.94,NW,305,6.0,8.0,80,0.00,,---,0.04,169.00,VWS V14.01,2013-02-22 23:05:00,
2013-02-22 17:06:00,22.9,17.4,29.94,WNW,301,7.0,7.0,79,0.00,,---,0.04,155.00,VWS V14.01,2013-02-22 23:06:00,
2013-02-22 17:10:00,22.9,17.4,29.94,WNW,288,5.0,7.0,79,0.00,,---,0.04,151.00,VWS V14.01,2013-02-22 23:10:00,
2013-02-22 17:11:00,22.9,17.4,29.94,WNW,292,6.0,6.0,79,0.00,,---,0.04,127.00,VWS V14.01,2013-02-22 23:11:00,
2013-02-22 17:15:00,22.9,17.4,29.95,WNW,298,5.0,6.0,79,0.00,,---,0.04,125.00,VWS V14.01,2013-02-22 23:15:00,
2013-02-22 17:16:00,22.7,17.2,29.95,West,280,3.0,6.0,79,0.00,,---,0.04,137.00,VWS V14.01,2013-02-22 23:16:00,
2013-02-22 17:20:00,22.7,17.2,29.95,West,274,5.0,6.0,79,0.00,,---,0.04,127.00,VWS V14.01,2013-02-22 23:20:00,
2013-02-22 17:21:00,22.7,17.2,29.95,West,272,3.0,5.0,79,0.00,,---,0.04,123.00,VWS V14.01,2013-02-22 23:21:00,
2013-02-22 17:25:00,22.7,17.2,29.95,West,277,2.0,5.0,79,0.00,,---,0.04,114.00,VWS V14.01,2013-02-22 23:25:00,
2013-02-22 17:27:00,22.5,17.0,29.95,West,274,6.0,6.0,79,0.00,,---,0.04,106.00,VWS V14.01,2013-02-22 23:27:00,
2013-02-22 17:30:00,22.5,17.0,29.95,West,277,3.0,6.0,79,0.00,,---,0.04,100.00,VWS V14.01,2013-02-22 23:30:00,
2013-02-22 17:32:00,22.4,16.9,29.95,West,278,4.0,7.0,79,0.00,,---,0.04,90.00,VWS V14.01,2013-02-22 23:32:00,
2013-02-22 17:35:00,22.4,16.9,29.95,NW,316,3.0,7.0,79,0.00,,---,0.04,84.00,VWS V14.01,2013-02-22 23:35:00,
2013-02-22 17:37:00,22.2,16.7,29.95,West,271,2.0,6.0,79,0.00,,---,0.04,76.00,VWS V14.01,2013-02-22 23:37:00,
2013-02-22 17:40:00,22.2,16.7,29.95,West,272,5.0,8.0,79,0.00,,---,0.04,69.00,VWS V14.01,2013-02-22 23:40:00,
2013-02-22 17:42:00,22.1,16.6,29.95,West,278,5.0,7.0,79,0.00,,---,0.04,72.00,VWS V14.01,2013-02-22 23:42:00,
2013-02-22 17:45:00,21.9,16.4,29.95,West,274,3.0,7.0,79,0.00,,---,0.04,69.00,VWS V14.01,2013-02-22 23:45:00,
2013-02-22 17:47:00,21.8,16.3,29.95,West,277,5.0,6.0,79,0.00,,---,0.04,60.00,VWS V14.01,2013-02-22 23:47:00,
2013-02-22 17:50:00,21.6,16.1,29.95,West,272,5.0,6.0,79,0.00,,---,0.04,53.00,VWS V14.01,2013-02-22 23:50:00,
2013-02-22 17:52:00,21.4,15.9,29.95,West,278,5.0,7.0,79,0.00,,---,0.04,48.00,VWS V14.01,2013-02-22 23:52:00,
2013-02-22 17:55:00,21.3,15.8,29.95,West,278,5.0,7.0,79,0.00,,---,0.04,44.00,VWS V14.01,2013-02-22 23:55:00,
2013-02-22 17:57:00,21.3,15.8,29.95,WNW,288,4.0,7.0,79,0.00,,---,0.04,37.00,VWS V14.01,2013-02-22 23:57:00,
2013-02-22 18:00:00,21.1,15.6,29.96,NW,320,5.0,7.0,79,0.00,,---,0.04,33.00,VWS V14.01,2013-02-23 00:00:00,
2013-02-22 18:02:00,21.0,15.5,29.96,West,280,5.0,8.0,79,0.00,,---,0.04,28.00,VWS V14.01,2013-02-23 00:02:00,
2013-02-22 18:05:00,20.8,15.3,29.96,West,280,3.0,8.0,79,0.00,,---,0.04,25.00,VWS V14.01,2013-02-23 00:05:00,
2013-02-22 18:07:00,20.5,15.0,29.96,West,265,5.0,6.0,79,0.00,,---,0.04,14.00,VWS V14.01,2013-02-23 00:07:00,
2013-02-22 18:10:00,20.3,14.8,29.96,West,265,5.0,6.0,79,0.00,,---,0.04,12.00,VWS V14.01,2013-02-23 00:10:00,
2013-02-22 18:12:00,20.0,14.6,29.96,West,261,4.0,5.0,79,0.00,,---,0.04,9.00,VWS V14.01,2013-02-23 00:12:00,
2013-02-22 18:15:00,19.9,14.4,29.96,West,265,3.0,5.0,79,0.00,,---,0.04,9.00,VWS V14.01,2013-02-23 00:15:00,
2013-02-22 18:17:00,19.4,14.0,29.96,West,265,2.0,5.0,79,0.00,,---,0.04,7.00,VWS V14.01,2013-02-23 00:17:00,
2013-02-22 18:20:00,19.2,13.8,29.96,West,263,5.0,5.0,79,0.00,,---,0.04,5.00,VWS V14.01,2013-02-23 00:20:00,
2013-02-22 18:22:00,18.8,13.4,29.96,West,268,5.0,5.0,79,0.00,,---,0.04,0.00,VWS V14.01,2013-02-23 00:22:00,
2013-02-22 18:25:00,18.6,13.2,29.96,West,265,5.0,6.0,79,0.00,,---,0.04,0.00,VWS V14.01,2013-02-23 00:25:00,
2013-02-22 18:28:00,18.1,13.0,29.96,West,264,5.0,6.0,80,0.00,,---,0.04,0.00,VWS V14.01,2013-02-23 00:28:00,
2013-02-22 18:30:00,18.0,12.9,29.96,West,261,5.0,6.0,80,0.00,,---,0.04,0.00,VWS V14.01,2013-02-23 00:30:00,
2013-02-22 18:33:00,18.0,13.2,29.96,WNW,288,6.0,6.0,81,0.00,,---,0.04,0.00,VWS V14.01,2013-02-23 00:33:00,
2013-02-22 18:35:00,18.1,13.3,29.96,West,265,5.0,6.0,81,0.00,,---,0.04,0.00,VWS V14.01,2013-02-23 00:35:00,
2013-02-22 18:38:00,18.1,13.3,29.96,WSW,256,3.0,6.0,81,0.00,,---,0.04,0.00,VWS V14.01,2013-02-23 00:38:00,
2013-02-22 18:40:00,18.1,13.0,29.96,WSW,258,3.0,6.0,80,0.00,,---,0.04,0.00,VWS V14.01,2013-02-23 00:40:00,
2013-02-22 18:43:00,18.0,13.2,29.96,WSW,257,6.0,6.0,81,0.00,,---,0.04,0.00,VWS V14.01,2013-02-23 00:43:00,
2013-02-22 18:45:00,15.9,11.7,29.98,WSW,240,6.0,7.0,83,0.00,,---,0.04,0.00,VWS V14.01,2013-02-23 00:45:00,
2013-02-22 18:48:00,17.5,12.7,29.96,WSW,253,7.0,7.0,81,0.00,,---,0.04,0.00,VWS V14.01,2013-02-23 00:48:00,
2013-02-22 18:50:00,17.3,12.5,29.96,WSW,254,7.0,7.0,81,0.00,,---,0.04,0.00,VWS V14.01,2013-02-23 00:50:00,
2013-02-22 18:53:00,17.0,12.2,29.96,WSW,250,6.0,8.0,81,0.00,,---,0.04,0.00,VWS V14.01,2013-02-23 00:53:00,
2013-02-22 18:55:00,15.9,11.7,29.98,WSW,237,6.0,7.0,83,0.00,,---,0.04,0.00,VWS V14.01,2013-02-23 00:55:00,
2013-02-22 18:58:00,16.9,12.4,29.97,WSW,248,7.0,7.0,82,0.00,,---,0.04,0.00,VWS V14.01,2013-02-23 00:58:00,
2013-02-22 19:00:00,15.7,11.5,29.99,WSW,237,7.0,7.0,83,0.00,,---,0.04,0.00,VWS V14.01,2013-02-23 01:00:00,
2013-02-22 19:03:00,16.9,12.4,29.97,WSW,243,7.0,8.0,82,0.00,,---,0.04,0.00,VWS V14.01,2013-02-23 01:03:00,
2013-02-22 19:05:00,16.7,12.2,29.97,WSW,247,7.0,8.0,82,0.00,,---,0.04,0.00,VWS V14.01,2013-02-23 01:05:00,
2013-02-22 19:08:00,16.1,11.3,29.97,WSW,244,7.0,7.0,81,0.00,,---,0.04,0.00,VWS V14.01,2013-02-23 01:08:00,
2013-02-22 19:10:00,16.1,11.3,29.97,WSW,241,7.0,7.0,81,0.00,,---,0.04,0.00,VWS V14.01,2013-02-23 01:10:00,
2013-02-22 19:13:00,16.2,11.7,29.98,WSW,237,7.0,7.0,82,0.00,,---,0.04,0.00,VWS V14.01,2013-02-23 01:13:00,
2013-02-22 19:15:00,14.3,9.8,29.98,WSW,246,8.0,10.0,82,0.00,,---,0.04,0.00,VWS V14.01,2013-02-23 01:15:00,
2013-02-22 19:19:00,16.5,12.0,29.98,WSW,239,7.0,8.0,82,0.00,,---,0.04,0.00,VWS V14.01,2013-02-23 01:19:00,
2013-02-22 19:20:00,16.5,12.0,29.98,WSW,241,7.0,8.0,82,0.00,,---,0.04,0.00,VWS V14.01,2013-02-23 01:20:00,
2013-02-22 19:24:00,16.1,11.3,29.98,WSW,243,7.0,8.0,81,0.00,,---,0.04,0.00,VWS V14.01,2013-02-23 01:24:00,
2013-02-22 19:25:00,16.1,11.3,29.98,WSW,240,6.0,8.0,81,0.00,,---,0.04,0.00,VWS V14.01,2013-02-23 01:25:00,
2013-02-22 19:29:00,15.4,10.6,29.98,WSW,239,6.0,8.0,81,0.00,,---,0.04,0.00,VWS V14.01,2013-02-23 01:29:00,
2013-02-22 19:30:00,15.4,10.6,29.98,WSW,239,6.0,8.0,81,0.00,,---,0.04,0.00,VWS V14.01,2013-02-23 01:30:00,
2013-02-22 19:34:00,15.2,10.7,29.98,WSW,246,5.0,7.0,82,0.00,,---,0.04,0.00,VWS V14.01,2013-02-23 01:34:00,
2013-02-22 19:35:00,15.2,10.7,29.98,WSW,246,5.0,7.0,82,0.00,,---,0.04,0.00,VWS V14.01,2013-02-23 01:35:00,
2013-02-22 19:39:00,15.6,11.4,29.98,WSW,240,5.0,6.0,83,0.00,,---,0.04,0.00,VWS V14.01,2013-02-23 01:39:00,
2013-02-22 19:40:00,15.6,11.4,29.98,WSW,240,5.0,6.0,83,0.00,,---,0.04,0.00,VWS V14.01,2013-02-23 01:40:00,
2013-02-22 19:44:00,15.9,11.7,29.98,WSW,240,6.0,7.0,83,0.00,,---,0.04,0.00,VWS V14.01,2013-02-23 01:44:00,
2013-02-22 19:45:00,15.9,11.7,29.98,WSW,240,6.0,7.0,83,0.00,,---,0.04,0.00,VWS V14.01,2013-02-23 01:45:00,
2013-02-22 19:49:00,16.1,11.9,29.98,WSW,243,6.0,7.0,83,0.00,,---,0.04,0.00,VWS V14.01,2013-02-23 01:49:00,
2013-02-22 19:50:00,16.1,11.9,29.98,WSW,243,6.0,7.0,83,0.00,,---,0.04,0.00,VWS V14.01,2013-02-23 01:50:00,
2013-02-22 19:54:00,15.9,11.7,29.98,WSW,237,6.0,7.0,83,0.00,,---,0.04,0.00,VWS V14.01,2013-02-23 01:54:00,
2013-02-22 19:55:00,15.9,11.7,29.98,WSW,237,6.0,7.0,83,0.00,,---,0.04,0.00,VWS V14.01,2013-02-23 01:55:00,
2013-02-22 19:59:00,15.7,11.5,29.99,WSW,237,7.0,7.0,83,0.00,,---,0.04,0.00,VWS V14.01,2013-02-23 01:59:00,
2013-02-22 20:00:00,15.7,11.5,29.99,WSW,237,7.0,7.0,83,0.00,,---,0.04,0.00,VWS V14.01,2013-02-23 02:00:00,
2013-02-22 20:04:00,15.6,11.4,29.99,WSW,241,8.0,8.0,83,0.00,,---,0.04,0.00,VWS V14.01,2013-02-23 02:04:00,
2013-02-22 20:05:00,15.6,11.4,29.99,WSW,246,8.0,8.0,83,0.00,,---,0.04,0.00,VWS V14.01,2013-02-23 02:05:00,
2013-02-22 20:09:00,14.9,10.4,29.99,WSW,244,8.0,10.0,82,0.00,,---,0.04,0.00,VWS V14.01,2013-02-23 02:09:00,
2013-02-22 20:10:00,15.1,10.6,29.99,WSW,248,8.0,10.0,82,0.00,,---,0.04,0.00,VWS V14.01,2013-02-23 02:10:00,
2013-02-22 20:14:00,14.3,9.8,29.98,WSW,243,7.0,8.0,82,0.00,,---,0.04,0.00,VWS V14.01,2013-02-23 02:14:00,
2013-02-22 20:15:00,14.3,9.8,29.98,WSW,246,8.0,10.0,82,0.00,,---,0.04,0.00,VWS V14.01,2013-02-23 02:15:00,
2013-02-22 20:19:00,14.4,10.5,29.98,WSW,239,7.0,8.0,84,0.00,,---,0.04,0.00,VWS V14.01,2013-02-23 02:19:00,
2013-02-22 20:20:00,14.4,10.5,29.98,WSW,237,7.0,8.0,84,0.00,,---,0.04,0.00,VWS V14.01,2013-02-23 02:20:00,
2013-02-22 20:24:00,14.8,10.9,29.98,WSW,239,7.0,8.0,84,0.00,,---,0.04,0.00,VWS V14.01,2013-02-23 02:24:00,
2013-02-22 20:25:00,14.8,10.9,29.98,West,277,7.0,8.0,84,0.00,,---,0.04,0.00,VWS V14.01,2013-02-23 02:25:00,
2013-02-22 20:30:00,14.1,9.6,29.98,WSW,243,8.0,8.0,82,0.00,,---,0.04,0.00,VWS V14.01,2013-02-23 02:30:00,
2013-02-22 20:35:00,13.6,9.4,29.98,NW,316,5.0,6.0,83,0.00,,---,0.04,0.00,VWS V14.01,2013-02-23 02:35:00,
2013-02-22 20:40:00,13.3,9.4,29.98,NW,311,6.0,7.0,84,0.00,,---,0.04,0.00,VWS V14.01,2013-02-23 02:40:00,
2013-02-22 20:45:00,12.8,8.9,29.98,North,356,6.0,7.0,84,0.00,,---,0.04,0.00,VWS V14.01,2013-02-23 02:45:00,
2013-02-22 20:50:00,12.6,8.7,29.98,North,356,6.0,7.0,84,0.00,,---,0.04,0.00,VWS V14.01,2013-02-23 02:50:00,
2013-02-22 20:55:00,12.4,8.5,29.98,North,0,7.0,7.0,84,0.00,,---,0.04,0.00,VWS V14.01,2013-02-23 02:55:00,
2013-02-22 21:00:00,12.4,8.8,29.99,North,0,5.0,8.0,85,0.00,,---,0.04,0.00,VWS V14.01,2013-02-23 03:00:00,
2013-02-22 21:05:00,12.3,8.4,29.99,NNW,332,6.0,8.0,84,0.00,,---,0.04,0.00,VWS V14.01,2013-02-23 03:05:00,
2013-02-22 21:06:00,12.3,8.7,29.99,North,0,6.0,6.0,85,0.00,,---,0.04,0.00,VWS V14.01,2013-02-23 03:06:00,
2013-02-22 21:10:00,12.1,8.2,29.99,North,356,7.0,7.0,84,0.00,,---,0.04,0.00,VWS V14.01,2013-02-23 03:10:00,
2013-02-22 21:11:00,11.9,8.0,29.99,NW,318,7.0,7.0,84,0.00,,---,0.04,0.00,VWS V14.01,2013-02-23 03:11:00,
2013-02-22 21:15:00,12.6,9.0,29.99,NNW,337,7.0,9.0,85,0.00,,---,0.04,0.00,VWS V14.01,2013-02-23 03:15:00,
2013-02-22 21:16:00,11.7,7.8,29.99,NNW,328,8.0,8.0,84,0.00,,---,0.04,0.00,VWS V14.01,2013-02-23 03:16:00,
2013-02-22 21:20:00,11.7,8.1,29.99,North,0,7.0,8.0,85,0.00,,---,0.04,0.00,VWS V14.01,2013-02-23 03:20:00,
2013-02-22 21:21:00,11.7,8.1,29.99,North,0,6.0,8.0,85,0.00,,---,0.04,0.00,VWS V14.01,2013-02-23 03:21:00,
2013-02-22 21:25:00,11.6,8.0,29.99,WSW,253,6.0,8.0,85,0.00,,---,0.04,0.00,VWS V14.01,2013-02-23 03:25:00,
2013-02-22 21:26:00,11.4,7.5,29.99,NNW,336,6.0,8.0,84,0.00,,---,0.04,0.00,VWS V14.01,2013-02-23 03:26:00,
2013-02-22 21:30:00,11.4,7.8,29.99,NNW,332,7.0,8.0,85,0.00,,---,0.04,0.00,VWS V14.01,2013-02-23 03:30:00,
2013-02-22 21:31:00,11.2,7.6,29.99,NW,309,8.0,8.0,85,0.00,,---,0.04,0.00,VWS V14.01,2013-02-23 03:31:00,
2013-02-22 21:35:00,11.2,7.6,29.99,North,0,8.0,10.0,85,0.00,,---,0.04,0.00,VWS V14.01,2013-02-23 03:35:00,
2013-02-22 21:36:00,11.2,7.6,29.99,North,0,8.0,10.0,85,0.00,,---,0.04,0.00,VWS V14.01,2013-02-23 03:36:00,
2013-02-22 21:40:00,11.4,7.8,29.99,NNW,337,9.0,11.0,85,0.00,,---,0.04,0.00,VWS V14.01,2013-02-23 03:40:00,
2013-02-22 21:41:00,11.6,8.2,29.99,WSW,258,8.0,10.0,86,0.00,,---,0.04,0.00,VWS V14.01,2013-02-23 03:41:00,
2013-02-22 21:45:00,11.6,8.2,29.99,North,0,7.0,10.0,86,0.00,,---,0.04,0.00,VWS V14.01,2013-02-23 03:45:00,
2013-02-22 21:46:00,11.6,8.0,29.99,North,357,8.0,8.0,85,0.00,,---,0.04,0.00,VWS V14.01,2013-02-23 03:46:00,
2013-02-22 21:50:00,11.7,8.3,29.99,North,354,8.0,9.0,86,0.00,,---,0.04,0.00,VWS V14.01,2013-02-23 03:50:00,
2013-02-22 21:51:00,11.7,8.3,29.99,WSW,250,7.0,8.0,86,0.00,,---,0.04,0.00,VWS V14.01,2013-02-23 03:51:00,
2013-02-22 21:55:00,11.9,8.5,29.99,West,265,8.0,8.0,86,0.00,,---,0.04,0.00,VWS V14.01,2013-02-23 03:55:00,
2013-02-22 21:56:00,12.1,8.7,29.99,North,0,8.0,10.0,86,0.00,,---,0.04,0.00,VWS V14.01,2013-02-23 03:56:00,
2013-02-22 22:00:00,12.3,8.9,29.99,North,0,8.0,10.0,86,0.00,,---,0.04,0.00,VWS V14.01,2013-02-23 04:00:00,
2013-02-22 22:01:00,12.4,9.0,29.99,SW,229,6.0,9.0,86,0.00,,---,0.04,0.00,VWS V14.01,2013-02-23 04:01:00,
2013-02-22 22:05:00,12.6,9.2,29.99,NNW,329,7.0,9.0,86,0.00,,---,0.04,0.00,VWS V14.01,2013-02-23 04:05:00,
2013-02-22 22:07:00,12.8,9.4,29.99,WSW,250,8.0,9.0,86,0.00,,---,0.04,0.00,VWS V14.01,2013-02-23 04:07:00,
2013-02-22 22:10:00,12.8,9.4,29.99,North,356,8.0,9.0,86,0.00,,---,0.04,0.00,VWS V14.01,2013-02-23 04:10:00,
2013-02-22 22:12:00,12.8,9.1,29.99,North,357,7.0,9.0,85,0.00,,---,0.04,0.00,VWS V14.01,2013-02-23 04:12:00,
2013-02-22 22:15:00,12.6,9.0,29.99,NNW,337,7.0,9.0,85,0.00,,---,0.04,0.00,VWS V14.01,2013-02-23 04:15:00,
2013-02-22 22:17:00,12.4,8.8,29.99,NW,316,7.0,7.0,85,0.00,,---,0.04,0.00,VWS V14.01,2013-02-23 04:17:00,
2013-02-22 22:20:00,12.8,9.4,29.97,WSW,258,6.0,7.0,86,0.00,,---,0.04,0.00,VWS V14.01,2013-02-23 04:20:00,
2013-02-22 22:22:00,12.4,9.0,29.99,NNW,346,7.0,8.0,86,0.00,,---,0.04,0.00,VWS V14.01,2013-02-23 04:22:00,
2013-02-22 22:25:00,12.4,8.8,29.99,North,0,6.0,8.0,85,0.00,,---,0.04,0.00,VWS V14.01,2013-02-23 04:25:00,
2013-02-22 22:27:00,12.1,8.2,29.99,NW,309,6.0,7.0,84,0.00,,---,0.04,0.00,VWS V14.01,2013-02-23 04:27:00,
2013-02-22 22:30:00,11.9,8.3,29.98,NNW,340,6.0,7.0,85,0.00,,---,0.04,0.00,VWS V14.01,2013-02-23 04:30:00,
2013-02-22 22:32:00,11.7,8.1,29.98,North,0,5.0,6.0,85,0.00,,---,0.04,0.00,VWS V14.01,2013-02-23 04:32:00,
2013-02-22 22:35:00,11.7,8.1,29.98,NNW,332,5.0,6.0,85,0.00,,---,0.04,0.00,VWS V14.01,2013-02-23 04:35:00,
2013-02-22 22:37:00,11.9,8.3,29.98,North,0,5.0,6.0,85,0.00,,---,0.04,0.00,VWS V14.01,2013-02-23 04:37:00,
2013-02-22 22:40:00,11.9,8.3,29.98,North,356,6.0,6.0,85,0.00,,---,0.04,0.00,VWS V14.01,2013-02-23 04:40:00,
2013-02-22 22:42:00,12.1,8.7,29.98,WSW,246,3.0,6.0,86,0.00,,---,0.04,0.00,VWS V14.01,2013-02-23 04:42:00,
2013-02-22 22:45:00,12.3,8.9,29.97,North,0,5.0,6.0,86,0.00,,---,0.04,0.00,VWS V14.01,2013-02-23 04:45:00,
2013-02-22 22:47:00,12.6,9.2,29.97,North,353,5.0,6.0,86,0.00,,---,0.04,0.00,VWS V14.01,2013-02-23 04:47:00,
2013-02-22 22:50:00,12.6,9.2,29.97,North,349,5.0,6.0,86,0.00,,---,0.04,0.00,VWS V14.01,2013-02-23 04:50:00,
2013-02-22 22:53:00,12.8,9.4,29.97,WSW,250,5.0,6.0,86,0.00,,---,0.04,0.00,VWS V14.01,2013-02-23 04:53:00,
2013-02-22 22:55:00,12.8,9.4,29.97,NNW,340,5.0,6.0,86,0.00,,---,0.04,0.00,VWS V14.01,2013-02-23 04:55:00,
2013-02-22 22:58:00,12.6,9.0,29.97,North,354,5.0,6.0,85,0.00,,---,0.04,0.00,VWS V14.01,2013-02-23 04:58:00,
2013-02-22 23:00:00,12.4,8.8,29.97,WSW,257,6.0,6.0,85,0.00,,---,0.04,0.00,VWS V14.01,2013-02-23 05:00:00,
2013-02-22 23:01:00,12.4,8.8,29.97,North,0,6.0,6.0,85,0.00,,---,0.04,0.00,VWS V14.01,2013-02-23 05:01:00,
2013-02-22 23:04:00,12.1,8.5,29.97,NW,323,5.0,6.0,85,0.00,,---,0.04,0.00,VWS V14.01,2013-02-23 05:04:00,
2013-02-22 23:05:00,12.1,8.5,29.97,North,357,6.0,6.0,85,0.00,,---,0.04,0.00,VWS V14.01,2013-02-23 05:05:00,
2013-02-22 23:09:00,12.1,8.5,29.97,North,0,5.0,5.0,85,0.00,,---,0.04,0.00,VWS V14.01,2013-02-23 05:09:00,
2013-02-22 23:10:00,12.1,8.5,29.97,North,353,5.0,6.0,85,0.00,,---,0.04,0.00,VWS V14.01,2013-02-23 05:10:00,
2013-02-22 23:14:00,12.4,9.0,29.97,NNW,347,5.0,6.0,86,0.00,,---,0.04,0.00,VWS V14.01,2013-02-23 05:14:00,
2013-02-22 23:15:00,12.3,8.9,29.97,North,359,6.0,6.0,86,0.00,,---,0.04,0.00,VWS V14.01,2013-02-23 05:15:00,
2013-02-22 23:20:00,12.9,9.5,29.97,West,275,5.0,6.0,86,0.00,,---,0.04,0.00,VWS V14.01,2013-02-23 05:20:00,
2013-02-22 23:25:00,13.1,9.7,29.97,North,0,4.0,6.0,86,0.00,,---,0.04,0.00,VWS V14.01,2013-02-23 05:25:00,
2013-02-22 23:30:00,13.1,9.7,29.97,NW,326,6.0,6.0,86,0.00,,---,0.04,0.00,VWS V14.01,2013-02-23 05:30:00,
2013-02-22 23:35:00,13.1,9.4,29.97,NNW,342,7.0,7.0,85,0.00,,---,0.04,0.00,VWS V14.01,2013-02-23 05:35:00,
2013-02-22 23:40:00,12.9,9.2,29.97,North,0,6.0,7.0,85,0.00,,---,0.04,0.00,VWS V14.01,2013-02-23 05:40:00,
2013-02-22 23:45:00,12.9,9.2,29.97,WSW,241,7.0,8.0,85,0.00,,---,0.04,0.00,VWS V14.01,2013-02-23 05:45:00,
2013-02-22 23:50:00,12.6,9.0,29.97,West,272,6.0,8.0,85,0.00,,---,0.04,0.00,VWS V14.01,2013-02-23 05:50:00,
2013-02-22 23:55:00,12.6,9.0,29.97,WNW,284,6.0,7.0,85,0.00,,---,0.04,0.00,VWS V14.01,2013-02-23 05:55:00,